createdAt,value
2024-02-02T00:01:14.445Z,4.90
2024-02-02T00:03:32.293Z,4.70
2024-02-02T00:05:47.492Z,4.90
2024-02-02T00:08:00.300Z,4.30
2024-02-02T00:10:13.098Z,4.20
2024-02-02T00:12:26.396Z,4.20
2024-02-02T00:14:39.469Z,4.10
2024-02-02T00:16:52.433Z,4.10
2024-02-02T00:19:05.624Z,3.80
2024-02-02T00:21:20.722Z,4.00
2024-02-02T00:23:33.523Z,4.00
2024-02-02T00:25:46.132Z,4.30
2024-02-02T00:27:59.622Z,3.80
2024-02-02T00:30:12.878Z,3.70
2024-02-02T00:32:25.543Z,3.90
2024-02-02T00:34:38.196Z,3.70
2024-02-02T00:36:50.956Z,4.50
2024-02-02T00:39:04.108Z,3.70
2024-02-02T00:41:16.815Z,3.80
2024-02-02T00:43:29.636Z,3.40
2024-02-02T00:45:42.330Z,3.50
2024-02-02T00:47:55.164Z,3.60
2024-02-02T00:50:08.134Z,3.40
2024-02-02T00:52:20.768Z,3.50
2024-02-02T00:54:35.101Z,3.50
2024-02-02T00:56:47.973Z,3.90
2024-02-02T00:59:00.867Z,4.00
2024-02-02T01:01:13.605Z,5.40
2024-02-02T01:03:26.445Z,4.30
2024-02-02T01:05:39.305Z,4.00
2024-02-02T01:07:53.786Z,3.70
2024-02-02T01:10:07.248Z,4.20
2024-02-02T01:12:20.656Z,4.40
2024-02-02T01:14:33.423Z,4.20
2024-02-02T01:16:46.110Z,4.10
2024-02-02T01:18:59.117Z,4.00
2024-02-02T01:21:12.044Z,4.00
2024-02-02T01:23:24.766Z,3.90
2024-02-02T01:25:37.529Z,4.00
2024-02-02T01:27:50.548Z,4.60
2024-02-02T01:30:04.267Z,4.00
2024-02-02T01:32:17.346Z,3.70
2024-02-02T01:34:30.043Z,4.00
2024-02-02T01:36:42.945Z,4.40
2024-02-02T01:38:55.833Z,4.10
2024-02-02T01:41:08.490Z,3.80
2024-02-02T01:43:24.584Z,4.10
2024-02-02T01:45:39.062Z,4.30
2024-02-02T01:47:51.963Z,3.70
2024-02-02T01:50:05.220Z,4.30
2024-02-02T01:52:18.162Z,4.20
2024-02-02T01:54:32.313Z,4.30
2024-02-02T01:56:47.478Z,4.40
2024-02-02T01:59:00.235Z,4.30
2024-02-02T02:01:12.982Z,4.20
2024-02-02T02:03:25.765Z,3.70
2024-02-02T02:05:40.224Z,4.40
2024-02-02T02:07:53.095Z,3.60
2024-02-02T02:10:06.368Z,3.70
2024-02-02T02:12:19.042Z,3.80
2024-02-02T02:14:32.130Z,3.90
2024-02-02T02:16:45.276Z,3.70
2024-02-02T02:19:03.007Z,3.70
2024-02-02T02:21:27.931Z,3.60
2024-02-02T02:23:41.026Z,3.50
2024-02-02T02:25:54.414Z,3.70
2024-02-02T02:28:07.081Z,3.90
2024-02-02T02:30:19.962Z,4.10
2024-02-02T02:32:35.252Z,3.60
2024-02-02T02:34:47.987Z,3.50
2024-02-02T02:37:00.911Z,3.80
2024-02-02T02:39:15.342Z,4.10
2024-02-02T02:41:28.253Z,4.00
2024-02-02T02:43:41.207Z,3.60
2024-02-02T02:45:53.902Z,4.00
2024-02-02T02:48:07.152Z,3.70
2024-02-02T02:50:19.860Z,3.70
2024-02-02T02:52:34.863Z,3.80
2024-02-02T02:54:47.513Z,3.50
2024-02-02T02:57:01.781Z,3.60
2024-02-02T02:59:17.752Z,3.80
2024-02-02T03:01:30.709Z,3.60
2024-02-02T03:03:43.720Z,3.30
2024-02-02T03:05:56.520Z,3.90
2024-02-02T03:08:09.412Z,3.50
2024-02-02T03:10:26.175Z,3.40
2024-02-02T03:12:38.946Z,3.50
2024-02-02T03:14:52.103Z,3.70
2024-02-02T03:17:06.342Z,3.80
2024-02-02T03:19:19.119Z,3.50
2024-02-02T03:21:31.871Z,3.70
2024-02-02T03:23:44.827Z,3.80
2024-02-02T03:25:58.430Z,3.50
2024-02-02T03:28:14.142Z,3.90
2024-02-02T03:30:28.563Z,4.00
2024-02-02T03:32:45.374Z,3.70
2024-02-02T03:34:58.289Z,3.60
2024-02-02T03:37:13.757Z,3.70
2024-02-02T03:39:26.586Z,3.90
2024-02-02T03:41:39.676Z,3.90
2024-02-02T03:43:56.789Z,4.00
2024-02-02T03:46:14.657Z,4.80
2024-02-02T03:48:27.722Z,4.30
2024-02-02T03:50:40.888Z,4.20
2024-02-02T03:52:57.179Z,4.20
2024-02-02T03:55:13.663Z,3.90
2024-02-02T03:57:26.589Z,4.00
2024-02-02T03:59:39.255Z,4.30
2024-02-02T04:01:52.832Z,3.50
2024-02-02T04:04:06.406Z,3.80
2024-02-02T04:06:19.224Z,3.90
2024-02-02T04:08:32.012Z,4.00
2024-02-02T04:10:44.808Z,3.50
2024-02-02T04:12:59.753Z,3.80
2024-02-02T04:15:12.455Z,4.10
2024-02-02T04:17:25.070Z,4.20
2024-02-02T04:19:38.239Z,4.20
2024-02-02T04:21:53.969Z,4.30
2024-02-02T04:24:08.872Z,4.00
2024-02-02T04:26:21.549Z,4.20
2024-02-02T04:28:36.635Z,4.40
2024-02-02T04:30:50.606Z,3.80
2024-02-02T04:33:03.627Z,4.30
2024-02-02T04:35:21.167Z,3.80
2024-02-02T04:37:33.957Z,3.90
2024-02-02T04:39:48.756Z,4.40
2024-02-02T04:42:06.462Z,4.40
2024-02-02T04:44:22.541Z,4.50
2024-02-02T04:46:36.606Z,4.10
2024-02-02T04:48:49.436Z,3.90
2024-02-02T04:51:04.856Z,4.10
2024-02-02T04:53:17.728Z,4.30
2024-02-02T04:55:31.261Z,4.40
2024-02-02T04:57:43.932Z,4.50
2024-02-02T05:00:01.804Z,4.30
2024-02-02T05:02:16.673Z,4.10
2024-02-02T05:04:31.733Z,4.10
2024-02-02T05:06:47.211Z,4.20
2024-02-02T05:09:02.426Z,5.60
2024-02-02T05:11:15.178Z,6.10
2024-02-02T05:13:28.011Z,4.70
2024-02-02T05:15:42.037Z,4.30
2024-02-02T05:17:54.808Z,4.30
2024-02-02T05:20:08.834Z,4.30
2024-02-02T05:22:21.587Z,4.20
2024-02-02T05:24:44.286Z,3.80
2024-02-02T05:26:59.823Z,4.30
2024-02-02T05:29:12.456Z,4.50
2024-02-02T05:31:25.140Z,4.60
2024-02-02T05:33:38.224Z,4.80
2024-02-02T05:35:51.244Z,4.60
2024-02-02T05:38:04.124Z,4.60
2024-02-02T05:40:17.131Z,4.30
2024-02-02T05:42:29.849Z,4.50
2024-02-02T05:44:43.747Z,4.30
2024-02-02T05:46:56.388Z,4.20
2024-02-02T05:49:09.139Z,4.50
2024-02-02T05:51:21.992Z,4.30
2024-02-02T05:53:34.653Z,4.10
2024-02-02T05:55:47.721Z,4.30
2024-02-02T05:58:00.456Z,4.50
2024-02-02T06:00:14.222Z,4.60
2024-02-02T06:02:27.121Z,4.80
2024-02-02T06:04:41.522Z,4.20
2024-02-02T06:06:54.800Z,4.50
2024-02-02T06:09:11.067Z,4.40
2024-02-02T06:11:23.773Z,3.80
2024-02-02T06:13:36.539Z,4.30
2024-02-02T06:15:49.223Z,4.20
2024-02-02T06:18:01.898Z,5.10
2024-02-02T06:20:14.663Z,4.70
2024-02-02T06:22:27.422Z,4.90
2024-02-02T06:24:40.139Z,4.70
2024-02-02T06:26:52.865Z,4.60
2024-02-02T06:29:05.892Z,4.70
2024-02-02T06:31:18.594Z,4.60
2024-02-02T06:33:31.354Z,4.80
2024-02-02T06:35:46.769Z,4.60
2024-02-02T06:37:59.545Z,4.50
2024-02-02T06:40:12.823Z,4.40
2024-02-02T06:42:26.158Z,5.20
2024-02-02T06:44:39.755Z,4.80
2024-02-02T06:46:52.465Z,4.70
2024-02-02T06:49:05.348Z,4.80
2024-02-02T06:51:18.142Z,4.60
2024-02-02T06:53:32.997Z,4.50
2024-02-02T06:55:46.382Z,4.80
2024-02-02T06:57:59.018Z,4.90
2024-02-02T07:00:16.772Z,4.40
2024-02-02T07:02:31.519Z,4.60
2024-02-02T07:04:44.459Z,4.70
2024-02-02T07:06:57.419Z,5.50
2024-02-02T07:09:31.756Z,5.00
2024-02-02T07:11:50.454Z,4.60
2024-02-02T07:14:09.763Z,4.60
2024-02-02T07:16:31.227Z,4.90
2024-02-02T07:18:44.228Z,5.20
2024-02-02T07:21:03.174Z,4.70
2024-02-02T07:23:28.926Z,5.00
2024-02-02T07:25:43.912Z,5.30
2024-02-02T07:28:04.387Z,5.40
2024-02-02T07:30:32.396Z,5.70
2024-02-02T07:32:45.417Z,4.90
2024-02-02T07:34:59.345Z,5.30
2024-02-02T07:37:36.084Z,5.20
2024-02-02T07:39:48.687Z,5.50
2024-02-02T07:42:01.889Z,5.70
2024-02-02T07:44:14.717Z,6.10
2024-02-02T07:46:27.826Z,5.40
2024-02-02T07:48:41.514Z,5.40
2024-02-02T07:50:54.877Z,5.90
2024-02-02T07:53:07.736Z,6.00
2024-02-02T07:55:20.403Z,5.90
2024-02-02T07:57:33.170Z,5.90
2024-02-02T07:59:45.922Z,5.90
2024-02-02T08:01:59.916Z,5.50
2024-02-02T08:04:13.342Z,6.00
2024-02-02T08:06:26.797Z,6.60
2024-02-02T08:08:39.922Z,5.80
2024-02-02T08:10:52.600Z,6.10
2024-02-02T08:13:05.288Z,5.90
2024-02-02T08:15:17.887Z,5.20
2024-02-02T08:17:30.661Z,6.00
2024-02-02T08:19:43.790Z,5.40
2024-02-02T08:21:57.230Z,5.10
2024-02-02T08:24:09.900Z,5.50
2024-02-02T08:26:22.669Z,6.00
2024-02-02T08:28:45.212Z,5.80
2024-02-02T08:31:04.750Z,6.10
2024-02-02T08:33:18.006Z,5.90
2024-02-02T08:35:30.887Z,5.40
2024-02-02T08:37:44.733Z,5.00
2024-02-02T08:39:58.066Z,5.90
2024-02-02T08:42:24.327Z,5.10
2024-02-02T08:44:37.075Z,5.50
2024-02-02T08:46:53.104Z,5.40
2024-02-02T08:49:19.403Z,5.30
2024-02-02T08:51:39.358Z,5.80
2024-02-02T08:54:34.673Z,5.40
2024-02-02T08:56:54.402Z,4.70
2024-02-02T08:59:45.054Z,5.10
2024-02-02T09:01:57.941Z,5.50
2024-02-02T09:05:02.018Z,5.30
2024-02-02T09:07:17.531Z,5.20
2024-02-02T09:09:30.689Z,4.70
2024-02-02T09:11:48.894Z,5.50
2024-02-02T09:14:05.592Z,4.80
2024-02-02T09:16:20.165Z,5.10
2024-02-02T09:18:42.838Z,4.90
2024-02-02T09:20:55.562Z,4.70
2024-02-02T09:23:08.656Z,5.30
2024-02-02T09:25:30.051Z,5.00
2024-02-02T09:27:43.417Z,5.20
2024-02-02T09:29:56.204Z,5.20
2024-02-02T09:32:09.570Z,5.20
2024-02-02T09:34:28.384Z,4.60
2024-02-02T09:36:41.709Z,4.80
2024-02-02T09:39:01.650Z,5.80
2024-02-02T09:41:45.022Z,5.30
2024-02-02T09:44:22.327Z,5.40
2024-02-02T09:46:45.156Z,5.90
2024-02-02T09:49:28.406Z,5.60
2024-02-02T09:51:59.169Z,5.40
2024-02-02T09:54:31.058Z,5.10
2024-02-02T09:57:01.253Z,5.50
2024-02-02T09:59:13.898Z,4.90
2024-02-02T10:01:51.545Z,5.20
2024-02-02T10:04:34.482Z,5.40
2024-02-02T10:07:38.194Z,4.90
2024-02-02T10:10:00.159Z,5.20
2024-02-02T10:12:22.483Z,4.90
2024-02-02T10:14:50.959Z,4.50
2024-02-02T10:17:22.000Z,4.50
2024-02-02T10:19:56.048Z,4.00
2024-02-02T10:22:30.492Z,4.20
2024-02-02T10:24:55.372Z,4.90
2024-02-02T10:27:19.987Z,4.90
2024-02-02T10:30:09.481Z,4.60
2024-02-02T10:32:42.755Z,4.60
2024-02-02T10:35:18.113Z,4.70
2024-02-02T10:37:39.286Z,5.10
2024-02-02T10:40:19.713Z,5.10
2024-02-02T10:42:49.575Z,5.80
2024-02-02T10:45:28.743Z,4.90
2024-02-02T10:48:08.910Z,4.80
2024-02-02T10:50:35.027Z,5.70
2024-02-02T10:53:09.740Z,5.30
2024-02-02T10:55:34.253Z,5.20
2024-02-02T10:57:55.377Z,5.30
2024-02-02T11:00:22.146Z,5.30
2024-02-02T11:03:10.939Z,4.70
2024-02-02T11:05:36.000Z,5.00
2024-02-02T11:08:02.310Z,4.70
2024-02-02T11:10:21.866Z,4.90
2024-02-02T11:13:09.845Z,4.90
2024-02-02T11:15:46.381Z,5.40
2024-02-02T11:18:16.435Z,5.20
2024-02-02T11:20:48.707Z,5.40
2024-02-02T11:23:11.735Z,4.70
2024-02-02T11:25:33.195Z,5.00
2024-02-02T11:28:02.542Z,4.70
2024-02-02T11:30:32.499Z,4.20
2024-02-02T11:32:52.219Z,4.60
2024-02-02T11:35:29.382Z,4.40
2024-02-02T11:38:11.708Z,5.20
2024-02-02T11:40:27.700Z,4.50
2024-02-02T11:42:41.565Z,4.50
2024-02-02T11:44:56.992Z,4.10
2024-02-02T11:47:10.664Z,4.30
2024-02-02T11:49:33.685Z,4.30
2024-02-02T11:51:55.026Z,4.30
2024-02-02T11:54:19.473Z,4.20
2024-02-02T11:56:35.915Z,4.00
2024-02-02T11:58:56.217Z,4.40
2024-02-02T12:01:27.331Z,4.00
2024-02-02T12:04:34.264Z,4.40
2024-02-02T12:07:16.650Z,3.90
2024-02-02T12:09:36.224Z,3.80
2024-02-02T12:11:53.392Z,3.70
2024-02-02T12:14:30.159Z,4.00
2024-02-02T12:16:43.377Z,4.00
2024-02-02T12:18:56.340Z,4.10
2024-02-02T12:21:16.468Z,4.20
2024-02-02T12:23:29.451Z,4.20
2024-02-02T12:25:42.292Z,4.00
2024-02-02T12:27:54.945Z,3.80
2024-02-02T12:30:11.640Z,3.60
2024-02-02T12:32:24.317Z,4.20
2024-02-02T12:34:38.536Z,4.10
2024-02-02T12:36:51.486Z,3.50
2024-02-02T12:39:08.277Z,4.20
2024-02-02T12:41:21.026Z,4.30
2024-02-02T12:43:33.988Z,3.80
2024-02-02T12:45:47.978Z,3.90
2024-02-02T12:48:01.618Z,4.00
2024-02-02T12:50:19.234Z,3.70
2024-02-02T12:52:32.215Z,3.70
2024-02-02T12:54:44.933Z,3.80
2024-02-02T12:56:57.786Z,4.00
2024-02-02T12:59:14.031Z,4.10
2024-02-02T13:01:27.756Z,4.10
2024-02-02T13:03:44.435Z,3.90
2024-02-02T13:05:58.872Z,3.80
2024-02-02T13:08:12.087Z,4.40
2024-02-02T13:10:38.277Z,4.50
2024-02-02T13:12:51.700Z,5.70
2024-02-02T13:15:08.992Z,4.60
2024-02-02T13:17:21.646Z,4.50
2024-02-02T13:19:46.833Z,4.80
2024-02-02T13:22:06.214Z,4.30
2024-02-02T13:24:19.462Z,4.40
2024-02-02T13:26:39.636Z,4.60
2024-02-02T13:28:53.724Z,4.80
2024-02-02T13:31:19.766Z,5.30
2024-02-02T13:33:34.145Z,5.40
2024-02-02T13:35:48.405Z,5.40
2024-02-02T13:38:03.932Z,5.00
2024-02-02T13:40:16.711Z,4.70
2024-02-02T13:42:34.611Z,5.50
2024-02-02T13:44:50.625Z,4.80
2024-02-02T13:47:03.441Z,5.10
2024-02-02T13:49:30.210Z,4.60
2024-02-02T13:51:43.889Z,4.50
2024-02-02T13:53:56.782Z,4.10
2024-02-02T13:56:11.764Z,4.20
2024-02-02T13:58:24.525Z,4.00
2024-02-02T14:00:37.578Z,4.60
2024-02-02T14:02:50.352Z,4.80
2024-02-02T14:05:03.222Z,4.40
2024-02-02T14:07:17.193Z,4.90
2024-02-02T14:09:29.912Z,5.50
2024-02-02T14:11:42.626Z,5.50
2024-02-02T14:13:56.344Z,5.30
2024-02-02T14:16:17.244Z,5.10
2024-02-02T14:18:30.803Z,5.60
2024-02-02T14:20:43.467Z,5.80
2024-02-02T14:22:56.196Z,5.20
2024-02-02T14:25:09.568Z,5.80
2024-02-02T14:27:32.849Z,6.20
2024-02-02T14:29:45.869Z,6.20
2024-02-02T14:31:59.975Z,6.10
2024-02-02T14:34:13.700Z,6.20
2024-02-02T14:36:26.458Z,6.70
2024-02-02T14:38:46.759Z,6.50
2024-02-02T14:40:59.835Z,6.60
2024-02-02T14:43:13.906Z,6.00
2024-02-02T14:45:26.508Z,6.40
2024-02-02T14:47:41.960Z,6.20
2024-02-02T14:49:54.947Z,7.20
2024-02-02T14:52:10.144Z,6.60
2024-02-02T14:54:24.667Z,7.40
2024-02-02T14:56:38.050Z,7.50
2024-02-02T14:58:50.824Z,6.70
2024-02-02T15:01:05.354Z,6.50
2024-02-02T15:03:18.197Z,6.10
2024-02-02T15:05:31.103Z,6.40
2024-02-02T15:07:43.813Z,6.60
2024-02-02T15:09:56.532Z,6.50
2024-02-02T15:12:09.761Z,5.90
2024-02-02T15:14:22.663Z,6.30
2024-02-02T15:16:35.565Z,6.30
2024-02-02T15:18:48.555Z,6.70
2024-02-02T15:21:01.487Z,6.00
2024-02-02T15:23:14.193Z,7.10
2024-02-02T15:25:27.090Z,7.00
2024-02-02T15:27:40.269Z,7.30
2024-02-02T15:29:52.994Z,7.10
2024-02-02T15:32:05.818Z,7.30
2024-02-02T15:34:18.971Z,7.80
2024-02-02T15:36:31.882Z,7.10
2024-02-02T15:39:03.591Z,7.10
2024-02-02T15:41:20.055Z,7.60
2024-02-02T15:43:32.721Z,7.30
2024-02-02T15:45:45.415Z,7.90
2024-02-02T15:47:58.277Z,7.30
2024-02-02T15:50:11.489Z,7.90
2024-02-02T15:52:24.412Z,8.30
2024-02-02T15:54:37.191Z,8.40
2024-02-02T15:56:50.447Z,8.50
2024-02-02T15:59:03.377Z,7.80
2024-02-02T16:01:16.149Z,9.60
2024-02-02T16:03:29.700Z,8.30
2024-02-02T16:05:42.570Z,9.00
2024-02-02T16:07:55.310Z,9.70
2024-02-02T16:10:08.599Z,8.80
2024-02-02T16:12:23.591Z,9.80
2024-02-02T16:14:37.613Z,9.60
2024-02-02T16:16:51.049Z,12.10
2024-02-02T16:19:03.874Z,11.40
2024-02-02T16:21:16.722Z,9.40
2024-02-02T16:23:29.457Z,8.10
2024-02-02T16:25:42.884Z,8.00
2024-02-02T16:27:55.577Z,8.10
2024-02-02T16:30:09.303Z,7.70
2024-02-02T16:32:22.011Z,7.70
2024-02-02T16:34:35.068Z,8.10
2024-02-02T16:36:47.926Z,8.30
2024-02-02T16:39:00.709Z,9.40
2024-02-02T16:41:14.162Z,9.60
2024-02-02T16:43:27.237Z,9.00
2024-02-02T16:45:41.473Z,10.30
2024-02-02T16:47:54.710Z,10.60
2024-02-02T16:50:07.926Z,11.30
2024-02-02T16:52:20.669Z,16.00
2024-02-02T16:54:34.066Z,14.40
2024-02-02T16:56:47.879Z,16.10
2024-02-02T16:59:00.653Z,13.30
2024-02-02T17:01:13.706Z,14.60
2024-02-02T17:03:26.886Z,11.00
2024-02-02T17:05:39.710Z,9.40
2024-02-02T17:07:52.446Z,9.80
2024-02-02T17:10:05.640Z,10.00
2024-02-02T17:12:21.333Z,13.70
2024-02-02T17:14:34.214Z,26.20
2024-02-02T17:16:47.057Z,15.90
2024-02-02T17:19:00.267Z,14.20
2024-02-02T17:21:13.490Z,13.80
2024-02-02T17:23:26.645Z,12.30
2024-02-02T17:25:39.602Z,12.20
2024-02-02T17:27:52.391Z,10.40
2024-02-02T17:30:05.819Z,15.90
2024-02-02T17:32:21.114Z,16.00
2024-02-02T17:34:34.142Z,13.80
2024-02-02T17:36:47.246Z,18.50
2024-02-02T17:39:00.427Z,24.70
2024-02-02T17:41:17.832Z,21.80
2024-02-02T17:43:30.663Z,20.00
2024-02-02T17:45:43.623Z,23.40
2024-02-02T17:47:56.585Z,18.50
2024-02-02T17:50:09.818Z,16.10
2024-02-02T17:52:22.690Z,23.10
2024-02-02T17:54:35.464Z,17.70
2024-02-02T17:56:48.223Z,12.30
2024-02-02T17:59:01.073Z,12.00
2024-02-02T18:01:13.971Z,12.30
2024-02-02T18:03:27.981Z,15.40
2024-02-02T18:05:40.966Z,16.70
2024-02-02T18:07:53.801Z,15.80
2024-02-02T18:10:07.271Z,12.90
2024-02-02T18:12:20.285Z,12.50
2024-02-02T18:14:33.064Z,10.80
2024-02-02T18:16:45.908Z,11.00
2024-02-02T18:18:59.135Z,10.20
2024-02-02T18:21:12.122Z,9.90
2024-02-02T18:23:27.811Z,11.20
2024-02-02T18:25:40.987Z,10.60
2024-02-02T18:27:54.019Z,10.50
2024-02-02T18:30:07.809Z,11.80
2024-02-02T18:32:21.116Z,12.90
2024-02-02T18:34:34.915Z,12.90
2024-02-02T18:36:47.847Z,13.20
2024-02-02T18:39:00.823Z,13.50
2024-02-02T18:41:13.613Z,13.70
2024-02-02T18:43:26.204Z,13.50
2024-02-02T18:45:38.930Z,14.70
2024-02-02T18:47:51.843Z,12.40
2024-02-02T18:50:05.583Z,12.90
2024-02-02T18:52:18.265Z,12.60
2024-02-02T18:54:31.082Z,12.40
2024-02-02T18:56:44.372Z,11.50
2024-02-02T18:58:57.714Z,11.10
2024-02-02T19:01:10.912Z,12.40
2024-02-02T19:03:23.725Z,13.00
2024-02-02T19:05:36.652Z,12.30
2024-02-02T19:07:49.262Z,11.40
2024-02-02T19:10:02.007Z,11.20
2024-02-02T19:12:16.045Z,12.10
2024-02-02T19:14:29.075Z,10.60
2024-02-02T19:16:41.816Z,11.40
2024-02-02T19:18:54.658Z,11.30
2024-02-02T19:21:07.474Z,11.40
2024-02-02T19:23:20.136Z,11.90
2024-02-02T19:25:32.812Z,13.10
2024-02-02T19:27:45.498Z,12.70
2024-02-02T19:29:58.497Z,12.90
2024-02-02T19:32:14.246Z,13.60
2024-02-02T19:34:27.268Z,11.90
2024-02-02T19:36:39.983Z,12.10
2024-02-02T19:38:57.639Z,15.80
2024-02-02T19:41:20.070Z,14.00
2024-02-02T19:43:34.167Z,10.80
2024-02-02T19:45:47.700Z,11.40
2024-02-02T19:48:01.024Z,10.20
2024-02-02T19:50:13.997Z,9.70
2024-02-02T19:52:26.629Z,9.30
2024-02-02T19:54:39.348Z,6.00
2024-02-02T19:56:52.131Z,6.90
2024-02-02T19:59:04.861Z,5.00
2024-02-02T20:01:19.795Z,5.00
2024-02-02T20:03:32.962Z,4.70
2024-02-02T20:05:45.577Z,5.50
2024-02-02T20:07:58.949Z,5.40
2024-02-02T20:10:13.006Z,9.40
2024-02-02T20:12:25.752Z,13.30
2024-02-02T20:14:38.798Z,9.90
2024-02-02T20:16:52.795Z,6.40
2024-02-02T20:19:06.173Z,5.20
2024-02-02T20:21:20.354Z,4.50
2024-02-02T20:23:35.310Z,4.30
2024-02-02T20:25:48.544Z,4.10
2024-02-02T20:28:02.461Z,4.40
2024-02-02T20:30:15.339Z,4.40
2024-02-02T20:32:27.986Z,4.30
2024-02-02T20:34:41.029Z,4.00
2024-02-02T20:36:55.232Z,3.70
2024-02-02T20:39:09.504Z,4.20
2024-02-02T20:41:28.023Z,4.50
2024-02-02T20:43:40.684Z,4.20
2024-02-02T20:45:53.690Z,4.80
2024-02-02T20:48:06.694Z,4.80
2024-02-02T20:50:20.240Z,4.60
2024-02-02T20:52:32.947Z,3.90
2024-02-02T20:54:48.277Z,4.30
2024-02-02T20:57:06.722Z,4.50
2024-02-02T20:59:19.599Z,5.00
2024-02-02T21:01:32.218Z,4.90
2024-02-02T21:03:47.693Z,4.20
2024-02-02T21:06:02.039Z,4.50
2024-02-02T21:08:25.599Z,3.80
2024-02-02T21:10:49.749Z,4.70
2024-02-02T21:13:06.083Z,4.50
2024-02-02T21:15:25.339Z,4.20
2024-02-02T21:17:47.849Z,4.40
2024-02-02T21:20:07.087Z,4.80
2024-02-02T21:22:23.418Z,3.90
2024-02-02T21:24:36.548Z,4.00
2024-02-02T21:26:49.265Z,4.40
2024-02-02T21:29:03.902Z,4.50
2024-02-02T21:31:16.740Z,4.10
2024-02-02T21:33:31.010Z,5.30
2024-02-02T21:35:43.958Z,4.90
2024-02-02T21:37:59.433Z,5.30
2024-02-02T21:40:12.911Z,4.60
2024-02-02T21:42:26.083Z,4.60
2024-02-02T21:44:41.724Z,4.90
2024-02-02T21:46:59.770Z,5.70
2024-02-02T21:49:12.955Z,5.40
2024-02-02T21:51:27.278Z,5.30
2024-02-02T21:53:43.831Z,5.80
2024-02-02T21:55:56.494Z,6.00
2024-02-02T21:58:14.284Z,5.90
2024-02-02T22:00:28.167Z,4.90
2024-02-02T22:02:41.390Z,5.20
2024-02-02T22:04:54.541Z,4.60
2024-02-02T22:07:11.380Z,4.90
2024-02-02T22:09:24.202Z,5.60
2024-02-02T22:11:37.011Z,5.00
2024-02-02T22:13:49.903Z,4.10
2024-02-02T22:16:09.999Z,5.00
2024-02-02T22:18:25.167Z,4.20
2024-02-02T22:20:38.499Z,6.90
2024-02-02T22:22:52.602Z,4.20
2024-02-02T22:25:05.616Z,4.70
2024-02-02T22:27:22.263Z,4.10
2024-02-02T22:29:36.396Z,4.70
2024-02-02T22:31:49.288Z,4.30
2024-02-02T22:34:02.960Z,4.80
2024-02-02T22:36:26.184Z,6.80
2024-02-02T22:38:40.089Z,5.50
2024-02-02T22:40:52.994Z,5.70
2024-02-02T22:43:05.767Z,5.70
2024-02-02T22:45:20.574Z,5.10
2024-02-02T22:47:33.405Z,5.20
2024-02-02T22:49:46.253Z,5.50
2024-02-02T22:51:59.445Z,5.80
2024-02-02T22:54:12.400Z,6.10
2024-02-02T22:56:25.248Z,6.80
2024-02-02T22:58:39.233Z,6.50
2024-02-02T23:00:53.203Z,6.70
2024-02-02T23:03:09.379Z,6.20
2024-02-02T23:05:22.183Z,6.90
2024-02-02T23:07:34.909Z,6.70
2024-02-02T23:09:50.406Z,7.00
2024-02-02T23:12:03.353Z,7.30
2024-02-02T23:14:16.122Z,6.50
2024-02-02T23:16:28.852Z,6.60
2024-02-02T23:18:41.700Z,6.20
2024-02-02T23:20:59.493Z,6.60
2024-02-02T23:23:18.758Z,7.00
2024-02-02T23:25:31.483Z,7.20
2024-02-02T23:27:44.582Z,7.20
2024-02-02T23:29:57.820Z,7.20
2024-02-02T23:32:10.531Z,7.60
2024-02-02T23:34:23.332Z,6.70
2024-02-02T23:36:36.551Z,6.70
2024-02-02T23:38:49.502Z,6.70
2024-02-02T23:41:02.471Z,7.00
2024-02-02T23:43:15.234Z,7.10
2024-02-02T23:45:28.037Z,6.60
2024-02-02T23:47:43.600Z,6.50
2024-02-02T23:49:59.465Z,6.90
2024-02-02T23:52:12.311Z,6.70
2024-02-02T23:54:25.080Z,6.50
2024-02-02T23:56:40.998Z,6.70
2024-02-02T23:58:53.679Z,6.70
